sensor_id;sensor_type;location;lat;lon;timestamp;P1;durP1;ratioP1;P2;durP2;ratioP2
49934;SDS011;39898;41.762;26.200;2022-10-16T00:00:34;23.15;;;8.00;;
49934;SDS011;39898;41.762;26.200;2022-10-16T00:03:03;23.42;;;6.70;;
49934;SDS011;39898;41.762;26.200;2022-10-16T00:05:30;15.27;;;6.80;;
49934;SDS011;39898;41.762;26.200;2022-10-16T00:07:57;17.90;;;6.68;;
49934;SDS011;39898;41.762;26.200;2022-10-16T00:10:24;14.50;;;6.60;;
49934;SDS011;39898;41.762;26.200;2022-10-16T00:12:51;20.40;;;7.18;;
49934;SDS011;39898;41.762;26.200;2022-10-16T00:15:18;19.38;;;7.25;;
49934;SDS011;39898;41.762;26.200;2022-10-16T00:17:44;12.93;;;5.47;;
49934;SDS011;39898;41.762;26.200;2022-10-16T00:20:11;13.57;;;6.20;;
49934;SDS011;39898;41.762;26.200;2022-10-16T00:22:38;17.23;;;6.20;;
49934;SDS011;39898;41.762;26.200;2022-10-16T00:25:04;19.25;;;6.25;;
49934;SDS011;39898;41.762;26.200;2022-10-16T00:27:32;16.30;;;6.80;;
49934;SDS011;39898;41.762;26.200;2022-10-16T00:29:59;16.67;;;6.32;;
49934;SDS011;39898;41.762;26.200;2022-10-16T00:32:26;20.83;;;6.43;;
49934;SDS011;39898;41.762;26.200;2022-10-16T00:34:53;14.73;;;6.00;;
49934;SDS011;39898;41.762;26.200;2022-10-16T00:37:23;9.20;;;5.47;;
49934;SDS011;39898;41.762;26.200;2022-10-16T00:39:50;15.02;;;5.25;;
49934;SDS011;39898;41.762;26.200;2022-10-16T00:42:17;13.05;;;5.93;;
49934;SDS011;39898;41.762;26.200;2022-10-16T00:44:49;19.48;;;5.72;;
49934;SDS011;39898;41.762;26.200;2022-10-16T00:47:21;18.15;;;6.45;;
49934;SDS011;39898;41.762;26.200;2022-10-16T00:49:53;14.65;;;6.30;;
49934;SDS011;39898;41.762;26.200;2022-10-16T00:52:25;10.15;;;5.75;;
49934;SDS011;39898;41.762;26.200;2022-10-16T00:54:52;14.30;;;5.97;;
49934;SDS011;39898;41.762;26.200;2022-10-16T00:59:47;15.15;;;6.82;;
49934;SDS011;39898;41.762;26.200;2022-10-16T01:02:15;12.95;;;5.60;;
49934;SDS011;39898;41.762;26.200;2022-10-16T01:04:51;15.20;;;6.30;;
49934;SDS011;39898;41.762;26.200;2022-10-16T01:07:27;10.75;;;5.55;;
49934;SDS011;39898;41.762;26.200;2022-10-16T01:17:45;17.45;;;5.90;;
49934;SDS011;39898;41.762;26.200;2022-10-16T01:28:28;11.55;;;5.90;;
49934;SDS011;39898;41.762;26.200;2022-10-16T01:31:19;17.30;;;8.02;;
49934;SDS011;39898;41.762;26.200;2022-10-16T01:33:56;10.93;;;5.50;;
49934;SDS011;39898;41.762;26.200;2022-10-16T01:36:31;14.68;;;6.07;;
49934;SDS011;39898;41.762;26.200;2022-10-16T01:39:08;20.67;;;6.90;;
49934;SDS011;39898;41.762;26.200;2022-10-16T01:41:39;14.68;;;7.03;;
49934;SDS011;39898;41.762;26.200;2022-10-16T01:44:11;17.58;;;5.63;;
49934;SDS011;39898;41.762;26.200;2022-10-16T01:46:44;13.00;;;5.93;;
49934;SDS011;39898;41.762;26.200;2022-10-16T01:49:14;13.18;;;6.10;;
49934;SDS011;39898;41.762;26.200;2022-10-16T01:51:44;13.82;;;6.25;;
49934;SDS011;39898;41.762;26.200;2022-10-16T01:54:16;19.00;;;5.70;;
49934;SDS011;39898;41.762;26.200;2022-10-16T01:56:47;10.70;;;5.75;;
49934;SDS011;39898;41.762;26.200;2022-10-16T01:59:18;18.70;;;6.55;;
49934;SDS011;39898;41.762;26.200;2022-10-16T02:01:48;24.02;;;7.03;;
49934;SDS011;39898;41.762;26.200;2022-10-16T02:04:21;21.90;;;9.98;;
49934;SDS011;39898;41.762;26.200;2022-10-16T02:06:53;15.02;;;5.97;;
49934;SDS011;39898;41.762;26.200;2022-10-16T02:09:21;13.82;;;6.63;;
49934;SDS011;39898;41.762;26.200;2022-10-16T02:11:48;17.08;;;6.40;;
49934;SDS011;39898;41.762;26.200;2022-10-16T02:14:17;13.30;;;6.50;;
49934;SDS011;39898;41.762;26.200;2022-10-16T02:16:45;7.57;;;4.22;;
49934;SDS011;39898;41.762;26.200;2022-10-16T02:19:13;11.77;;;6.63;;
49934;SDS011;39898;41.762;26.200;2022-10-16T02:29:42;16.80;;;8.18;;
49934;SDS011;39898;41.762;26.200;2022-10-16T02:32:17;13.65;;;7.18;;
49934;SDS011;39898;41.762;26.200;2022-10-16T02:34:49;16.65;;;8.68;;
49934;SDS011;39898;41.762;26.200;2022-10-16T02:37:17;21.63;;;9.25;;
49934;SDS011;39898;41.762;26.200;2022-10-16T02:39:45;23.67;;;9.27;;
49934;SDS011;39898;41.762;26.200;2022-10-16T02:42:12;20.02;;;8.73;;
49934;SDS011;39898;41.762;26.200;2022-10-16T02:44:40;16.92;;;8.05;;
49934;SDS011;39898;41.762;26.200;2022-10-16T02:47:06;18.85;;;8.27;;
49934;SDS011;39898;41.762;26.200;2022-10-16T02:49:33;31.83;;;9.10;;
49934;SDS011;39898;41.762;26.200;2022-10-16T02:52:00;20.63;;;10.32;;
49934;SDS011;39898;41.762;26.200;2022-10-16T02:54:27;22.70;;;9.18;;
49934;SDS011;39898;41.762;26.200;2022-10-16T02:56:53;18.35;;;8.48;;
49934;SDS011;39898;41.762;26.200;2022-10-16T02:59:20;20.83;;;9.25;;
49934;SDS011;39898;41.762;26.200;2022-10-16T03:01:47;14.73;;;9.55;;
49934;SDS011;39898;41.762;26.200;2022-10-16T03:04:13;30.40;;;10.88;;
49934;SDS011;39898;41.762;26.200;2022-10-16T03:06:41;17.97;;;9.80;;
49934;SDS011;39898;41.762;26.200;2022-10-16T03:09:08;25.85;;;10.10;;
49934;SDS011;39898;41.762;26.200;2022-10-16T03:11:34;25.90;;;9.52;;
49934;SDS011;39898;41.762;26.200;2022-10-16T03:14:01;27.90;;;10.85;;
49934;SDS011;39898;41.762;26.200;2022-10-16T03:16:28;24.13;;;9.85;;
49934;SDS011;39898;41.762;26.200;2022-10-16T03:18:55;20.92;;;9.70;;
49934;SDS011;39898;41.762;26.200;2022-10-16T03:21:21;28.52;;;9.90;;
49934;SDS011;39898;41.762;26.200;2022-10-16T03:23:48;24.73;;;9.85;;
49934;SDS011;39898;41.762;26.200;2022-10-16T03:26:15;28.60;;;10.77;;
49934;SDS011;39898;41.762;26.200;2022-10-16T03:28:41;22.10;;;10.05;;
49934;SDS011;39898;41.762;26.200;2022-10-16T03:31:08;23.48;;;10.15;;
49934;SDS011;39898;41.762;26.200;2022-10-16T03:33:35;28.05;;;11.32;;
49934;SDS011;39898;41.762;26.200;2022-10-16T03:36:01;24.77;;;10.25;;
49934;SDS011;39898;41.762;26.200;2022-10-16T03:38:28;17.33;;;9.75;;
49934;SDS011;39898;41.762;26.200;2022-10-16T03:40:55;16.13;;;9.40;;
49934;SDS011;39898;41.762;26.200;2022-10-16T03:43:22;19.58;;;9.30;;
49934;SDS011;39898;41.762;26.200;2022-10-16T03:45:50;21.88;;;10.65;;
49934;SDS011;39898;41.762;26.200;2022-10-16T03:48:18;20.38;;;9.13;;
49934;SDS011;39898;41.762;26.200;2022-10-16T03:53:14;22.23;;;9.98;;
49934;SDS011;39898;41.762;26.200;2022-10-16T03:55:42;16.38;;;9.30;;
49934;SDS011;39898;41.762;26.200;2022-10-16T03:58:09;22.90;;;9.27;;
49934;SDS011;39898;41.762;26.200;2022-10-16T04:00:43;25.42;;;10.15;;
49934;SDS011;39898;41.762;26.200;2022-10-16T04:03:11;33.40;;;13.07;;
49934;SDS011;39898;41.762;26.200;2022-10-16T04:05:38;29.58;;;9.77;;
49934;SDS011;39898;41.762;26.200;2022-10-16T04:08:05;25.35;;;9.98;;
49934;SDS011;39898;41.762;26.200;2022-10-16T04:10:32;21.30;;;10.07;;
49934;SDS011;39898;41.762;26.200;2022-10-16T04:12:59;24.50;;;9.70;;
49934;SDS011;39898;41.762;26.200;2022-10-16T04:15:26;18.25;;;9.85;;
49934;SDS011;39898;41.762;26.200;2022-10-16T04:17:52;37.50;;;11.23;;
49934;SDS011;39898;41.762;26.200;2022-10-16T04:20:19;19.13;;;9.65;;
49934;SDS011;39898;41.762;26.200;2022-10-16T04:22:46;24.88;;;10.77;;
49934;SDS011;39898;41.762;26.200;2022-10-16T04:25:13;26.23;;;10.13;;
49934;SDS011;39898;41.762;26.200;2022-10-16T04:27:39;26.33;;;9.07;;
49934;SDS011;39898;41.762;26.200;2022-10-16T04:30:09;23.15;;;9.60;;
49934;SDS011;39898;41.762;26.200;2022-10-16T04:32:36;19.27;;;8.25;;
49934;SDS011;39898;41.762;26.200;2022-10-16T04:35:02;24.27;;;9.75;;
49934;SDS011;39898;41.762;26.200;2022-10-16T04:37:29;20.33;;;9.35;;
49934;SDS011;39898;41.762;26.200;2022-10-16T04:39:56;26.27;;;10.82;;
49934;SDS011;39898;41.762;26.200;2022-10-16T04:42:23;22.98;;;9.75;;
49934;SDS011;39898;41.762;26.200;2022-10-16T04:44:49;20.70;;;9.02;;
49934;SDS011;39898;41.762;26.200;2022-10-16T04:47:16;38.33;;;9.05;;
49934;SDS011;39898;41.762;26.200;2022-10-16T04:49:43;19.10;;;9.18;;
49934;SDS011;39898;41.762;26.200;2022-10-16T04:52:10;16.25;;;9.20;;
49934;SDS011;39898;41.762;26.200;2022-10-16T04:54:36;19.15;;;8.20;;
49934;SDS011;39898;41.762;26.200;2022-10-16T04:57:03;18.27;;;8.75;;
49934;SDS011;39898;41.762;26.200;2022-10-16T04:59:31;19.20;;;9.13;;
49934;SDS011;39898;41.762;26.200;2022-10-16T05:01:57;19.05;;;9.95;;
49934;SDS011;39898;41.762;26.200;2022-10-16T05:04:24;18.50;;;8.10;;
49934;SDS011;39898;41.762;26.200;2022-10-16T05:06:51;22.30;;;9.85;;
49934;SDS011;39898;41.762;26.200;2022-10-16T05:09:18;22.63;;;10.25;;
49934;SDS011;39898;41.762;26.200;2022-10-16T05:11:45;20.08;;;9.63;;
49934;SDS011;39898;41.762;26.200;2022-10-16T05:14:11;22.90;;;10.10;;
49934;SDS011;39898;41.762;26.200;2022-10-16T05:16:38;16.48;;;9.23;;
49934;SDS011;39898;41.762;26.200;2022-10-16T05:19:05;14.90;;;9.23;;
49934;SDS011;39898;41.762;26.200;2022-10-16T05:21:51;29.40;;;11.65;;
49934;SDS011;39898;41.762;26.200;2022-10-16T05:24:18;24.67;;;11.80;;
49934;SDS011;39898;41.762;26.200;2022-10-16T05:26:45;24.38;;;11.75;;
49934;SDS011;39898;41.762;26.200;2022-10-16T05:29:12;30.70;;;12.93;;
49934;SDS011;39898;41.762;26.200;2022-10-16T05:31:38;30.35;;;12.98;;
49934;SDS011;39898;41.762;26.200;2022-10-16T05:34:05;21.73;;;11.25;;
49934;SDS011;39898;41.762;26.200;2022-10-16T05:36:32;31.50;;;12.18;;
49934;SDS011;39898;41.762;26.200;2022-10-16T05:38:59;37.30;;;12.15;;
49934;SDS011;39898;41.762;26.200;2022-10-16T05:41:25;20.80;;;12.15;;
49934;SDS011;39898;41.762;26.200;2022-10-16T05:43:53;21.77;;;10.47;;
49934;SDS011;39898;41.762;26.200;2022-10-16T05:46:21;18.92;;;11.02;;
49934;SDS011;39898;41.762;26.200;2022-10-16T05:48:48;29.42;;;12.13;;
49934;SDS011;39898;41.762;26.200;2022-10-16T05:51:14;26.35;;;11.30;;
49934;SDS011;39898;41.762;26.200;2022-10-16T05:53:41;35.28;;;11.52;;
49934;SDS011;39898;41.762;26.200;2022-10-16T05:56:10;28.45;;;10.77;;
49934;SDS011;39898;41.762;26.200;2022-10-16T05:58:38;27.00;;;10.95;;
49934;SDS011;39898;41.762;26.200;2022-10-16T06:01:08;22.23;;;9.27;;
49934;SDS011;39898;41.762;26.200;2022-10-16T06:03:40;19.55;;;9.82;;
49934;SDS011;39898;41.762;26.200;2022-10-16T06:06:11;14.02;;;9.10;;
49934;SDS011;39898;41.762;26.200;2022-10-16T06:08:43;17.42;;;8.70;;
49934;SDS011;39898;41.762;26.200;2022-10-16T06:11:12;21.20;;;9.35;;
49934;SDS011;39898;41.762;26.200;2022-10-16T06:13:41;24.55;;;8.60;;
49934;SDS011;39898;41.762;26.200;2022-10-16T06:16:09;21.80;;;9.25;;
49934;SDS011;39898;41.762;26.200;2022-10-16T06:18:36;16.20;;;9.18;;
49934;SDS011;39898;41.762;26.200;2022-10-16T06:21:17;20.55;;;10.02;;
49934;SDS011;39898;41.762;26.200;2022-10-16T06:23:45;14.75;;;8.25;;
49934;SDS011;39898;41.762;26.200;2022-10-16T06:26:13;36.63;;;9.52;;
49934;SDS011;39898;41.762;26.200;2022-10-16T06:28:42;18.35;;;8.88;;
49934;SDS011;39898;41.762;26.200;2022-10-16T06:31:09;19.83;;;8.60;;
49934;SDS011;39898;41.762;26.200;2022-10-16T06:33:37;18.15;;;7.85;;
49934;SDS011;39898;41.762;26.200;2022-10-16T06:36:06;18.08;;;7.70;;
49934;SDS011;39898;41.762;26.200;2022-10-16T06:38:35;13.00;;;7.72;;
49934;SDS011;39898;41.762;26.200;2022-10-16T06:41:02;16.00;;;6.82;;
49934;SDS011;39898;41.762;26.200;2022-10-16T06:43:29;18.05;;;7.97;;
49934;SDS011;39898;41.762;26.200;2022-10-16T06:45:59;24.15;;;8.43;;
49934;SDS011;39898;41.762;26.200;2022-10-16T06:48:26;14.05;;;7.20;;
49934;SDS011;39898;41.762;26.200;2022-10-16T06:53:35;12.55;;;6.32;;
49934;SDS011;39898;41.762;26.200;2022-10-16T06:58:45;18.73;;;7.43;;
49934;SDS011;39898;41.762;26.200;2022-10-16T07:01:13;10.85;;;6.70;;
49934;SDS011;39898;41.762;26.200;2022-10-16T07:03:42;16.17;;;6.93;;
49934;SDS011;39898;41.762;26.200;2022-10-16T07:06:12;16.48;;;6.68;;
49934;SDS011;39898;41.762;26.200;2022-10-16T07:08:41;16.73;;;7.18;;
49934;SDS011;39898;41.762;26.200;2022-10-16T07:11:10;23.42;;;8.27;;
49934;SDS011;39898;41.762;26.200;2022-10-16T07:13:40;19.70;;;7.05;;
49934;SDS011;39898;41.762;26.200;2022-10-16T07:16:09;11.65;;;6.25;;
49934;SDS011;39898;41.762;26.200;2022-10-16T07:18:56;13.25;;;6.70;;
49934;SDS011;39898;41.762;26.200;2022-10-16T07:21:27;9.35;;;5.97;;
49934;SDS011;39898;41.762;26.200;2022-10-16T07:24:03;17.38;;;6.30;;
49934;SDS011;39898;41.762;26.200;2022-10-16T07:26:32;9.38;;;5.63;;
49934;SDS011;39898;41.762;26.200;2022-10-16T07:29:01;10.30;;;5.32;;
49934;SDS011;39898;41.762;26.200;2022-10-16T07:31:29;14.70;;;5.47;;
49934;SDS011;39898;41.762;26.200;2022-10-16T07:33:58;19.80;;;6.82;;
49934;SDS011;39898;41.762;26.200;2022-10-16T07:36:25;9.50;;;5.63;;
49934;SDS011;39898;41.762;26.200;2022-10-16T07:38:52;11.73;;;6.00;;
49934;SDS011;39898;41.762;26.200;2022-10-16T07:41:23;15.02;;;6.38;;
49934;SDS011;39898;41.762;26.200;2022-10-16T07:43:51;13.52;;;7.05;;
49934;SDS011;39898;41.762;26.200;2022-10-16T07:48:46;17.60;;;6.05;;
49934;SDS011;39898;41.762;26.200;2022-10-16T07:51:15;10.23;;;5.10;;
49934;SDS011;39898;41.762;26.200;2022-10-16T07:53:44;13.25;;;5.15;;
49934;SDS011;39898;41.762;26.200;2022-10-16T07:56:11;16.42;;;5.50;;
49934;SDS011;39898;41.762;26.200;2022-10-16T07:58:38;11.88;;;4.75;;
49934;SDS011;39898;41.762;26.200;2022-10-16T08:01:06;19.77;;;5.37;;
49934;SDS011;39898;41.762;26.200;2022-10-16T08:03:35;7.93;;;5.05;;
49934;SDS011;39898;41.762;26.200;2022-10-16T08:06:03;11.60;;;5.00;;
49934;SDS011;39898;41.762;26.200;2022-10-16T08:10:57;15.95;;;5.10;;
49934;SDS011;39898;41.762;26.200;2022-10-16T08:13:24;9.52;;;4.22;;
49934;SDS011;39898;41.762;26.200;2022-10-16T08:15:53;7.38;;;3.80;;
49934;SDS011;39898;41.762;26.200;2022-10-16T08:18:20;21.10;;;8.75;;
49934;SDS011;39898;41.762;26.200;2022-10-16T08:20:47;32.50;;;13.13;;
49934;SDS011;39898;41.762;26.200;2022-10-16T08:23:14;12.40;;;4.07;;
49934;SDS011;39898;41.762;26.200;2022-10-16T08:25:41;30.65;;;13.32;;
49934;SDS011;39898;41.762;26.200;2022-10-16T08:28:09;9.05;;;4.00;;
49934;SDS011;39898;41.762;26.200;2022-10-16T08:30:37;23.45;;;10.68;;
49934;SDS011;39898;41.762;26.200;2022-10-16T08:33:04;54.58;;;23.60;;
49934;SDS011;39898;41.762;26.200;2022-10-16T08:35:32;32.70;;;12.73;;
49934;SDS011;39898;41.762;26.200;2022-10-16T08:37:59;9.85;;;4.20;;
49934;SDS011;39898;41.762;26.200;2022-10-16T08:40:26;10.02;;;4.65;;
49934;SDS011;39898;41.762;26.200;2022-10-16T08:48:45;10.55;;;4.00;;
49934;SDS011;39898;41.762;26.200;2022-10-16T08:51:24;5.05;;;2.92;;
49934;SDS011;39898;41.762;26.200;2022-10-16T08:53:54;38.17;;;11.10;;
49934;SDS011;39898;41.762;26.200;2022-10-16T08:56:23;6.00;;;3.08;;
49934;SDS011;39898;41.762;26.200;2022-10-16T09:01:21;23.20;;;3.20;;
49934;SDS011;39898;41.762;26.200;2022-10-16T09:06:55;8.40;;;3.30;;
49934;SDS011;39898;41.762;26.200;2022-10-16T09:15:29;6.30;;;3.17;;
49934;SDS011;39898;41.762;26.200;2022-10-16T09:21:28;12.40;;;4.70;;
49934;SDS011;39898;41.762;26.200;2022-10-16T09:23:58;13.95;;;4.45;;
49934;SDS011;39898;41.762;26.200;2022-10-16T09:26:33;9.55;;;3.60;;
49934;SDS011;39898;41.762;26.200;2022-10-16T09:29:00;6.93;;;3.08;;
49934;SDS011;39898;41.762;26.200;2022-10-16T09:31:27;7.32;;;2.60;;
49934;SDS011;39898;41.762;26.200;2022-10-16T09:33:55;3.58;;;2.70;;
49934;SDS011;39898;41.762;26.200;2022-10-16T09:36:25;10.98;;;3.00;;
49934;SDS011;39898;41.762;26.200;2022-10-16T09:39:04;6.60;;;3.40;;
49934;SDS011;39898;41.762;26.200;2022-10-16T09:41:34;5.35;;;2.70;;
49934;SDS011;39898;41.762;26.200;2022-10-16T09:44:04;10.32;;;2.83;;
49934;SDS011;39898;41.762;26.200;2022-10-16T09:46:42;8.05;;;3.28;;
49934;SDS011;39898;41.762;26.200;2022-10-16T09:49:25;6.30;;;2.90;;
49934;SDS011;39898;41.762;26.200;2022-10-16T09:52:12;3.50;;;2.38;;
49934;SDS011;39898;41.762;26.200;2022-10-16T09:54:50;16.17;;;3.83;;
49934;SDS011;39898;41.762;26.200;2022-10-16T09:57:17;9.32;;;3.70;;
49934;SDS011;39898;41.762;26.200;2022-10-16T09:59:48;6.95;;;3.85;;
49934;SDS011;39898;41.762;26.200;2022-10-16T10:02:17;33.25;;;15.20;;
49934;SDS011;39898;41.762;26.200;2022-10-16T10:04:51;41.53;;;20.73;;
49934;SDS011;39898;41.762;26.200;2022-10-16T10:07:23;14.20;;;5.65;;
49934;SDS011;39898;41.762;26.200;2022-10-16T10:09:53;10.50;;;5.65;;
49934;SDS011;39898;41.762;26.200;2022-10-16T10:12:26;6.35;;;3.13;;
49934;SDS011;39898;41.762;26.200;2022-10-16T10:14:56;20.63;;;3.30;;
49934;SDS011;39898;41.762;26.200;2022-10-16T10:17:25;11.32;;;3.53;;
49934;SDS011;39898;41.762;26.200;2022-10-16T10:19:54;31.92;;;14.75;;
49934;SDS011;39898;41.762;26.200;2022-10-16T10:22:24;10.18;;;5.18;;
49934;SDS011;39898;41.762;26.200;2022-10-16T10:30:57;9.85;;;2.90;;
49934;SDS011;39898;41.762;26.200;2022-10-16T10:36:39;6.18;;;2.70;;
49934;SDS011;39898;41.762;26.200;2022-10-16T10:39:18;5.03;;;2.30;;
49934;SDS011;39898;41.762;26.200;2022-10-16T10:42:04;7.15;;;2.85;;
49934;SDS011;39898;41.762;26.200;2022-10-16T10:47:54;9.23;;;2.88;;
49934;SDS011;39898;41.762;26.200;2022-10-16T10:50:43;8.10;;;2.40;;
49934;SDS011;39898;41.762;26.200;2022-10-16T10:59:09;10.50;;;2.67;;
49934;SDS011;39898;41.762;26.200;2022-10-16T11:01:55;10.90;;;3.00;;
49934;SDS011;39898;41.762;26.200;2022-10-16T11:07:04;7.93;;;3.25;;
49934;SDS011;39898;41.762;26.200;2022-10-16T11:09:41;4.22;;;2.40;;
49934;SDS011;39898;41.762;26.200;2022-10-16T11:14:56;7.53;;;2.80;;
49934;SDS011;39898;41.762;26.200;2022-10-16T11:17:38;16.98;;;3.08;;
49934;SDS011;39898;41.762;26.200;2022-10-16T11:20:24;6.07;;;2.45;;
49934;SDS011;39898;41.762;26.200;2022-10-16T11:23:10;5.80;;;2.53;;
49934;SDS011;39898;41.762;26.200;2022-10-16T11:25:44;7.95;;;3.15;;
49934;SDS011;39898;41.762;26.200;2022-10-16T11:28:19;9.25;;;3.03;;
49934;SDS011;39898;41.762;26.200;2022-10-16T11:31:04;10.23;;;2.90;;
49934;SDS011;39898;41.762;26.200;2022-10-16T11:33:40;6.93;;;2.88;;
49934;SDS011;39898;41.762;26.200;2022-10-16T11:36:25;9.63;;;3.47;;
49934;SDS011;39898;41.762;26.200;2022-10-16T11:38:57;7.65;;;2.58;;
49934;SDS011;39898;41.762;26.200;2022-10-16T11:47:32;9.70;;;2.75;;
49934;SDS011;39898;41.762;26.200;2022-10-16T11:55:59;8.48;;;2.60;;
49934;SDS011;39898;41.762;26.200;2022-10-16T12:09:02;4.25;;;2.70;;
49934;SDS011;39898;41.762;26.200;2022-10-16T12:11:39;13.02;;;3.83;;
49934;SDS011;39898;41.762;26.200;2022-10-16T12:14:07;8.48;;;3.92;;
49934;SDS011;39898;41.762;26.200;2022-10-16T12:16:53;9.95;;;3.80;;
49934;SDS011;39898;41.762;26.200;2022-10-16T12:19:22;13.45;;;3.20;;
49934;SDS011;39898;41.762;26.200;2022-10-16T12:21:51;8.68;;;3.08;;
49934;SDS011;39898;41.762;26.200;2022-10-16T12:24:31;5.30;;;3.10;;
49934;SDS011;39898;41.762;26.200;2022-10-16T12:27:00;6.60;;;2.50;;
49934;SDS011;39898;41.762;26.200;2022-10-16T12:29:41;7.70;;;2.78;;
49934;SDS011;39898;41.762;26.200;2022-10-16T12:35:20;13.88;;;6.03;;
49934;SDS011;39898;41.762;26.200;2022-10-16T12:37:50;12.80;;;6.05;;
49934;SDS011;39898;41.762;26.200;2022-10-16T12:42:56;11.43;;;3.80;;
49934;SDS011;39898;41.762;26.200;2022-10-16T12:45:30;8.98;;;4.18;;
49934;SDS011;39898;41.762;26.200;2022-10-16T12:48:00;8.07;;;2.88;;
49934;SDS011;39898;41.762;26.200;2022-10-16T12:52:58;11.25;;;5.00;;
49934;SDS011;39898;41.762;26.200;2022-10-16T12:55:26;11.93;;;6.28;;
49934;SDS011;39898;41.762;26.200;2022-10-16T13:04:13;6.63;;;3.38;;
49934;SDS011;39898;41.762;26.200;2022-10-16T13:07:07;17.25;;;6.35;;
49934;SDS011;39898;41.762;26.200;2022-10-16T13:15:19;11.70;;;3.65;;
49934;SDS011;39898;41.762;26.200;2022-10-16T13:23:26;12.93;;;6.10;;
49934;SDS011;39898;41.762;26.200;2022-10-16T13:28:46;3.22;;;2.58;;
49934;SDS011;39898;41.762;26.200;2022-10-16T13:31:14;6.65;;;2.90;;
49934;SDS011;39898;41.762;26.200;2022-10-16T13:33:46;7.97;;;3.60;;
49934;SDS011;39898;41.762;26.200;2022-10-16T13:36:18;6.68;;;3.53;;
49934;SDS011;39898;41.762;26.200;2022-10-16T13:38:46;4.18;;;2.67;;
49934;SDS011;39898;41.762;26.200;2022-10-16T13:41:14;8.63;;;3.10;;
49934;SDS011;39898;41.762;26.200;2022-10-16T13:43:44;7.03;;;3.50;;
49934;SDS011;39898;41.762;26.200;2022-10-16T13:46:15;11.13;;;3.10;;
49934;SDS011;39898;41.762;26.200;2022-10-16T13:48:43;5.53;;;3.05;;
49934;SDS011;39898;41.762;26.200;2022-10-16T13:51:14;8.50;;;3.30;;
49934;SDS011;39898;41.762;26.200;2022-10-16T13:53:43;5.82;;;3.20;;
49934;SDS011;39898;41.762;26.200;2022-10-16T13:56:12;6.72;;;3.58;;
49934;SDS011;39898;41.762;26.200;2022-10-16T13:58:40;9.15;;;3.45;;
49934;SDS011;39898;41.762;26.200;2022-10-16T14:01:22;10.98;;;3.75;;
49934;SDS011;39898;41.762;26.200;2022-10-16T14:04:00;8.95;;;3.72;;
49934;SDS011;39898;41.762;26.200;2022-10-16T14:06:29;8.63;;;3.20;;
49934;SDS011;39898;41.762;26.200;2022-10-16T14:09:06;9.32;;;3.38;;
49934;SDS011;39898;41.762;26.200;2022-10-16T14:11:57;6.30;;;3.72;;
49934;SDS011;39898;41.762;26.200;2022-10-16T14:14:24;5.40;;;2.95;;
49934;SDS011;39898;41.762;26.200;2022-10-16T14:16:59;4.40;;;3.05;;
49934;SDS011;39898;41.762;26.200;2022-10-16T14:19:26;9.00;;;4.43;;
49934;SDS011;39898;41.762;26.200;2022-10-16T14:21:55;6.93;;;3.10;;
49934;SDS011;39898;41.762;26.200;2022-10-16T14:24:26;17.27;;;9.07;;
49934;SDS011;39898;41.762;26.200;2022-10-16T14:26:56;19.90;;;10.18;;
49934;SDS011;39898;41.762;26.200;2022-10-16T14:29:24;7.60;;;4.07;;
49934;SDS011;39898;41.762;26.200;2022-10-16T14:32:02;14.00;;;4.35;;
49934;SDS011;39898;41.762;26.200;2022-10-16T14:34:32;6.28;;;3.10;;
49934;SDS011;39898;41.762;26.200;2022-10-16T14:37:26;12.48;;;3.42;;
49934;SDS011;39898;41.762;26.200;2022-10-16T14:39:55;12.48;;;3.28;;
49934;SDS011;39898;41.762;26.200;2022-10-16T14:42:30;8.32;;;3.10;;
49934;SDS011;39898;41.762;26.200;2022-10-16T14:44:57;8.10;;;4.20;;
49934;SDS011;39898;41.762;26.200;2022-10-16T14:47:25;3.20;;;2.33;;
49934;SDS011;39898;41.762;26.200;2022-10-16T14:49:53;7.50;;;3.45;;
49934;SDS011;39898;41.762;26.200;2022-10-16T14:52:22;10.02;;;3.63;;
49934;SDS011;39898;41.762;26.200;2022-10-16T14:54:49;8.55;;;3.25;;
49934;SDS011;39898;41.762;26.200;2022-10-16T14:57:24;9.00;;;3.05;;
49934;SDS011;39898;41.762;26.200;2022-10-16T14:59:54;9.18;;;4.28;;
49934;SDS011;39898;41.762;26.200;2022-10-16T15:02:32;7.07;;;3.13;;
49934;SDS011;39898;41.762;26.200;2022-10-16T15:07:58;8.20;;;3.38;;
49934;SDS011;39898;41.762;26.200;2022-10-16T15:10:26;13.25;;;3.20;;
49934;SDS011;39898;41.762;26.200;2022-10-16T15:12:54;6.97;;;3.42;;
49934;SDS011;39898;41.762;26.200;2022-10-16T15:15:25;13.80;;;4.60;;
49934;SDS011;39898;41.762;26.200;2022-10-16T15:18:12;8.55;;;4.18;;
49934;SDS011;39898;41.762;26.200;2022-10-16T15:20:41;10.90;;;3.58;;
49934;SDS011;39898;41.762;26.200;2022-10-16T15:26:01;8.93;;;3.33;;
49934;SDS011;39898;41.762;26.200;2022-10-16T15:28:28;9.82;;;3.60;;
49934;SDS011;39898;41.762;26.200;2022-10-16T15:30:55;9.15;;;3.78;;
49934;SDS011;39898;41.762;26.200;2022-10-16T15:33:24;8.93;;;3.47;;
49934;SDS011;39898;41.762;26.200;2022-10-16T15:36:02;5.65;;;3.22;;
49934;SDS011;39898;41.762;26.200;2022-10-16T15:38:29;7.83;;;2.80;;
49934;SDS011;39898;41.762;26.200;2022-10-16T15:40:56;4.85;;;3.15;;
49934;SDS011;39898;41.762;26.200;2022-10-16T15:43:23;5.95;;;3.33;;
49934;SDS011;39898;41.762;26.200;2022-10-16T15:46:03;7.05;;;3.47;;
49934;SDS011;39898;41.762;26.200;2022-10-16T15:48:33;7.85;;;3.30;;
49934;SDS011;39898;41.762;26.200;2022-10-16T15:51:00;5.45;;;3.25;;
49934;SDS011;39898;41.762;26.200;2022-10-16T15:53:31;8.93;;;3.60;;
49934;SDS011;39898;41.762;26.200;2022-10-16T15:56:00;6.43;;;3.67;;
49934;SDS011;39898;41.762;26.200;2022-10-16T15:58:28;6.63;;;3.75;;
49934;SDS011;39898;41.762;26.200;2022-10-16T16:00:56;12.07;;;4.03;;
49934;SDS011;39898;41.762;26.200;2022-10-16T16:03:27;7.68;;;4.35;;
49934;SDS011;39898;41.762;26.200;2022-10-16T16:05:54;8.35;;;4.07;;
49934;SDS011;39898;41.762;26.200;2022-10-16T16:08:21;10.23;;;4.18;;
49934;SDS011;39898;41.762;26.200;2022-10-16T16:11:05;7.65;;;4.40;;
49934;SDS011;39898;41.762;26.200;2022-10-16T16:13:35;10.52;;;4.13;;
49934;SDS011;39898;41.762;26.200;2022-10-16T16:16:08;9.40;;;5.28;;
49934;SDS011;39898;41.762;26.200;2022-10-16T16:18:36;12.55;;;4.78;;
49934;SDS011;39898;41.762;26.200;2022-10-16T16:21:04;16.00;;;6.50;;
49934;SDS011;39898;41.762;26.200;2022-10-16T16:23:31;15.60;;;5.67;;
49934;SDS011;39898;41.762;26.200;2022-10-16T16:26:05;15.38;;;6.68;;
49934;SDS011;39898;41.762;26.200;2022-10-16T16:28:50;23.02;;;7.57;;
49934;SDS011;39898;41.762;26.200;2022-10-16T16:31:17;17.48;;;6.78;;
49934;SDS011;39898;41.762;26.200;2022-10-16T16:33:43;15.60;;;5.22;;
49934;SDS011;39898;41.762;26.200;2022-10-16T16:36:10;13.50;;;6.15;;
49934;SDS011;39898;41.762;26.200;2022-10-16T16:38:41;13.32;;;5.28;;
49934;SDS011;39898;41.762;26.200;2022-10-16T16:41:15;15.05;;;4.50;;
49934;SDS011;39898;41.762;26.200;2022-10-16T16:43:42;17.48;;;4.80;;
49934;SDS011;39898;41.762;26.200;2022-10-16T16:46:09;19.35;;;5.90;;
49934;SDS011;39898;41.762;26.200;2022-10-16T16:48:36;16.58;;;6.60;;
49934;SDS011;39898;41.762;26.200;2022-10-16T16:51:08;18.52;;;6.65;;
49934;SDS011;39898;41.762;26.200;2022-10-16T16:53:39;16.67;;;6.40;;
49934;SDS011;39898;41.762;26.200;2022-10-16T16:56:05;16.27;;;6.95;;
49934;SDS011;39898;41.762;26.200;2022-10-16T16:58:33;16.25;;;7.60;;
49934;SDS011;39898;41.762;26.200;2022-10-16T17:01:00;22.20;;;7.10;;